Bradford, Massachusetts
Current Conditions -  °F | °C
As of 4:12 AM on Thursday 23 Oct 2014 (Local Time) from KLWM Reporting Station
Heavy Rain Heavy Rain  
Wind Chill: 42°   Ceiling: 900
Heat Index: 48°   Visibility: 4mi
Dew Point: 47°   Wind: 15mph
Humidity: 96%   Direction: 20°NNE
Pressure: 29.77"   Gusts: 25mph
Location:  42.7512°N, 71.0864°W
Report Text: KLWM 230812Z AUTO 02013G22KT 4SM +RA BR BKN009 OVC016 09/08 A2977 RMK AO2 PK WND 02026/0801 LTG DSNT W TSE03 P0006 T00890083
Loading
Personal Weather Stations






























Interactive Weather Map
Tropical Storm Tracking
New forecast layout! Learn more

10-Day Weather Forecast

Advertisements
Track Severe Weather on mobile